createdAt,value
2023-05-17T00:00:12.527Z,2.80
2023-05-17T00:02:40.929Z,3.23
2023-05-17T00:05:12.700Z,2.47
2023-05-17T00:07:41.119Z,2.87
2023-05-17T00:10:10.348Z,2.77
2023-05-17T00:12:38.703Z,2.90
2023-05-17T00:15:10.005Z,3.60
2023-05-17T00:17:39.824Z,3.20
2023-05-17T00:20:09.630Z,2.90
2023-05-17T00:22:38.639Z,3.07
2023-05-17T00:25:08.001Z,2.47
2023-05-17T00:27:36.473Z,2.63
2023-05-17T00:30:05.995Z,2.80
2023-05-17T00:32:34.350Z,2.70
2023-05-17T00:35:04.227Z,3.67
2023-05-17T00:37:32.611Z,2.70
2023-05-17T00:40:01.004Z,2.50
2023-05-17T00:42:29.305Z,2.50
2023-05-17T00:44:59.795Z,2.87
2023-05-17T00:47:28.280Z,2.40
2023-05-17T00:49:56.994Z,2.30
2023-05-17T00:52:26.830Z,2.40
2023-05-17T00:54:55.169Z,1.90
2023-05-17T00:57:23.731Z,2.10
2023-05-17T00:59:55.461Z,1.90
2023-05-17T01:02:23.912Z,2.10
2023-05-17T01:04:52.365Z,2.47
2023-05-17T01:07:20.750Z,2.60
2023-05-17T01:09:51.001Z,2.13
2023-05-17T01:12:34.298Z,2.10
2023-05-17T01:15:15.688Z,2.20
2023-05-17T01:17:53.666Z,2.30
2023-05-17T01:20:29.013Z,1.83
2023-05-17T01:23:12.706Z,1.90
2023-05-17T01:26:01.339Z,1.83
2023-05-17T01:28:32.964Z,1.80
2023-05-17T01:31:04.297Z,2.07
2023-05-17T01:33:33.627Z,1.70
2023-05-17T01:36:02.020Z,1.67
2023-05-17T01:38:30.391Z,2.17
2023-05-17T01:41:07.242Z,2.63
2023-05-17T01:43:52.307Z,1.93
2023-05-17T01:46:29.604Z,2.23
2023-05-17T01:49:12.482Z,2.30
2023-05-17T01:51:49.253Z,2.20
2023-05-17T01:54:24.655Z,2.00
2023-05-17T01:56:59.221Z,1.70
2023-05-17T01:59:30.726Z,1.73
2023-05-17T02:02:06.118Z,1.90
2023-05-17T02:04:38.107Z,2.00
2023-05-17T02:07:06.696Z,1.93
2023-05-17T02:09:35.071Z,1.97
2023-05-17T02:12:03.396Z,1.77
2023-05-17T02:17:10.462Z,2.23
2023-05-17T02:19:38.774Z,3.20
2023-05-17T02:22:07.076Z,2.80
2023-05-17T02:24:35.389Z,2.10
2023-05-17T02:27:04.524Z,2.40
2023-05-17T02:29:32.826Z,2.70
2023-05-17T02:32:01.138Z,1.73
2023-05-17T02:34:30.864Z,2.17
2023-05-17T02:36:59.234Z,2.20
2023-05-17T02:39:27.539Z,1.87
2023-05-17T02:41:55.857Z,2.30
2023-05-17T02:44:24.235Z,1.93
2023-05-17T02:46:52.554Z,1.57
2023-05-17T02:49:20.922Z,2.10
2023-05-17T02:51:50.596Z,1.60
2023-05-17T02:54:18.909Z,1.60
2023-05-17T02:56:47.198Z,1.80
2023-05-17T02:59:16.128Z,1.70
2023-05-17T03:01:44.540Z,1.60
2023-05-17T03:04:12.994Z,1.47
2023-05-17T03:06:41.353Z,1.67
2023-05-17T03:09:13.924Z,1.57
2023-05-17T03:11:42.194Z,1.70
2023-05-17T03:14:10.622Z,1.70
2023-05-17T03:16:38.960Z,1.80
2023-05-17T03:19:10.346Z,1.53
2023-05-17T03:21:38.741Z,1.70
2023-05-17T03:24:08.421Z,1.70
2023-05-17T03:26:38.153Z,1.90
2023-05-17T03:29:06.455Z,1.70
2023-05-17T03:31:34.828Z,1.50
2023-05-17T03:34:03.226Z,1.23
2023-05-17T03:36:31.793Z,1.47
2023-05-17T03:39:00.230Z,1.70
2023-05-17T03:41:28.588Z,1.90
2023-05-17T03:43:58.273Z,1.30
2023-05-17T03:46:26.807Z,1.43
2023-05-17T03:48:55.249Z,1.40
2023-05-17T03:51:26.444Z,1.73
2023-05-17T03:54:00.877Z,1.50
2023-05-17T03:56:29.198Z,1.30
2023-05-17T03:58:58.897Z,1.40
2023-05-17T04:01:27.345Z,1.53
2023-05-17T04:03:55.741Z,1.37
2023-05-17T04:06:24.190Z,1.40
2023-05-17T04:08:55.885Z,1.30
2023-05-17T04:11:26.755Z,1.87
2023-05-17T04:13:56.873Z,1.10
2023-05-17T04:16:26.656Z,1.33
2023-05-17T04:18:55.242Z,1.53
2023-05-17T04:21:23.697Z,1.37
2023-05-17T04:23:52.052Z,1.40
2023-05-17T04:26:20.783Z,1.40
2023-05-17T04:28:52.410Z,1.43
2023-05-17T04:31:28.338Z,1.33
2023-05-17T04:33:57.015Z,1.10
2023-05-17T04:36:25.551Z,1.50
2023-05-17T04:38:56.686Z,2.33
2023-05-17T04:41:30.070Z,1.40
2023-05-17T04:43:58.662Z,1.03
2023-05-17T04:46:28.326Z,1.37
2023-05-17T04:48:57.400Z,1.63
2023-05-17T04:51:27.043Z,1.80
2023-05-17T04:53:55.385Z,1.37
2023-05-17T04:56:23.763Z,1.10
2023-05-17T04:58:52.964Z,1.73
2023-05-17T05:01:22.180Z,1.77
2023-05-17T05:03:51.884Z,1.67
2023-05-17T05:06:22.068Z,1.40
2023-05-17T05:08:50.406Z,1.60
2023-05-17T05:11:21.515Z,1.33
2023-05-17T05:13:49.835Z,1.47
2023-05-17T05:16:18.228Z,1.10
2023-05-17T05:18:46.688Z,1.40
2023-05-17T05:21:16.498Z,1.27
2023-05-17T05:23:44.901Z,1.00
2023-05-17T05:26:13.341Z,1.10
2023-05-17T05:28:41.736Z,1.17
2023-05-17T05:31:10.050Z,1.93
2023-05-17T05:33:38.512Z,1.50
2023-05-17T05:36:07.987Z,1.47
2023-05-17T05:38:38.138Z,1.53
2023-05-17T05:41:06.531Z,1.33
2023-05-17T05:43:36.223Z,1.40
2023-05-17T05:46:04.759Z,1.10
2023-05-17T05:48:39.482Z,1.40
2023-05-17T05:51:07.998Z,1.17
2023-05-17T05:53:37.711Z,1.50
2023-05-17T05:56:06.862Z,1.67
2023-05-17T05:58:38.161Z,1.40
2023-05-17T06:01:06.931Z,1.90
2023-05-17T06:03:35.277Z,1.53
2023-05-17T06:06:03.692Z,1.40
2023-05-17T06:08:32.125Z,1.40
2023-05-17T06:11:01.802Z,1.60
2023-05-17T06:13:30.226Z,2.07
2023-05-17T06:15:59.603Z,1.47
2023-05-17T06:18:28.166Z,1.60
2023-05-17T06:20:56.574Z,1.60
2023-05-17T06:23:25.693Z,1.63
2023-05-17T06:25:54.135Z,1.90
2023-05-17T06:28:23.999Z,1.47
2023-05-17T06:30:52.374Z,1.67
2023-05-17T06:33:20.726Z,1.50
2023-05-17T06:38:22.947Z,1.30
2023-05-17T06:40:54.199Z,1.53
2023-05-17T06:43:24.440Z,1.60
2023-05-17T06:45:53.171Z,1.60
2023-05-17T06:48:21.720Z,1.77
2023-05-17T06:50:50.249Z,1.80
2023-05-17T06:53:18.802Z,1.20
2023-05-17T06:55:47.262Z,1.30
2023-05-17T06:58:15.812Z,1.40
2023-05-17T07:00:45.722Z,1.20
2023-05-17T07:03:16.550Z,2.00
2023-05-17T07:05:44.960Z,1.57
2023-05-17T07:08:15.023Z,1.50
2023-05-17T07:10:43.336Z,1.20
2023-05-17T07:13:11.669Z,1.53
2023-05-17T07:15:40.052Z,1.63
2023-05-17T07:18:09.909Z,1.50
2023-05-17T07:20:38.330Z,1.50
2023-05-17T07:23:09.698Z,1.23
2023-05-17T07:25:40.664Z,1.33
2023-05-17T07:28:09.026Z,1.40
2023-05-17T07:30:37.379Z,1.63
2023-05-17T07:33:05.914Z,1.67
2023-05-17T07:35:35.846Z,1.87
2023-05-17T07:38:04.213Z,1.40
2023-05-17T07:40:32.626Z,1.60
2023-05-17T07:43:01.152Z,1.37
2023-05-17T07:45:29.997Z,1.80
2023-05-17T07:47:58.612Z,1.37
2023-05-17T07:50:28.062Z,1.73
2023-05-17T07:52:58.046Z,1.67
2023-05-17T07:55:26.607Z,1.33
2023-05-17T07:57:55.076Z,1.33
2023-05-17T08:00:24.735Z,1.50
2023-05-17T08:02:53.283Z,1.53
2023-05-17T08:05:21.870Z,1.90
2023-05-17T08:07:50.316Z,1.73
2023-05-17T08:10:20.421Z,1.50
2023-05-17T08:12:48.807Z,1.30
2023-05-17T08:15:17.156Z,1.70
2023-05-17T08:17:45.792Z,1.43
2023-05-17T08:20:14.641Z,1.50
2023-05-17T08:22:43.086Z,1.57
2023-05-17T08:25:12.125Z,1.60
2023-05-17T08:27:44.584Z,1.57
2023-05-17T08:30:17.969Z,1.50
2023-05-17T08:32:50.097Z,1.47
2023-05-17T08:35:18.801Z,1.70
2023-05-17T08:37:47.171Z,1.50
2023-05-17T08:40:20.205Z,1.70
2023-05-17T08:42:50.983Z,1.40
2023-05-17T08:45:20.050Z,1.30
2023-05-17T08:47:49.370Z,1.90
2023-05-17T08:50:17.835Z,1.47
2023-05-17T08:52:47.623Z,1.30
2023-05-17T08:55:16.408Z,1.77
2023-05-17T08:57:45.990Z,1.20
2023-05-17T09:00:21.096Z,1.70
2023-05-17T09:02:52.510Z,1.33
2023-05-17T09:05:21.322Z,1.87
2023-05-17T09:07:50.561Z,1.83
2023-05-17T09:10:19.117Z,1.80
2023-05-17T09:12:47.743Z,1.30
2023-05-17T09:15:22.997Z,1.60
2023-05-17T09:17:53.867Z,2.13
2023-05-17T09:20:25.982Z,1.60
2023-05-17T09:22:54.454Z,1.80
2023-05-17T09:25:26.303Z,1.67
2023-05-17T09:27:55.391Z,1.97
2023-05-17T09:30:31.508Z,1.77
2023-05-17T09:33:07.123Z,2.07
2023-05-17T09:35:37.179Z,2.07
2023-05-17T09:38:09.052Z,1.80
2023-05-17T09:40:40.909Z,1.80
2023-05-17T09:43:10.326Z,1.77
2023-05-17T09:45:41.235Z,2.10
2023-05-17T09:48:14.944Z,1.57
2023-05-17T09:50:47.451Z,1.93
2023-05-17T09:53:38.441Z,1.80
2023-05-17T09:56:08.281Z,2.40
2023-05-17T09:58:39.354Z,1.80
2023-05-17T10:01:11.299Z,2.60
2023-05-17T10:03:40.147Z,2.37
2023-05-17T10:06:13.384Z,1.90
2023-05-17T10:08:54.092Z,1.80
2023-05-17T10:11:28.148Z,1.90
2023-05-17T10:14:08.479Z,1.80
2023-05-17T10:16:39.861Z,1.77
2023-05-17T10:21:37.747Z,1.77
2023-05-17T10:24:08.063Z,1.73
2023-05-17T10:26:38.593Z,1.80
2023-05-17T10:29:07.498Z,1.70
2023-05-17T10:31:37.551Z,1.40
2023-05-17T10:34:07.532Z,1.97
2023-05-17T10:36:36.095Z,1.53
2023-05-17T10:39:04.865Z,1.70
2023-05-17T10:41:36.434Z,1.57
2023-05-17T10:44:08.012Z,1.60
2023-05-17T10:46:38.226Z,1.80
2023-05-17T10:49:07.176Z,1.80
2023-05-17T10:51:38.277Z,1.30
2023-05-17T10:54:11.684Z,1.60
2023-05-17T10:56:49.518Z,2.20
2023-05-17T10:59:23.552Z,1.70
2023-05-17T11:02:11.751Z,1.33
2023-05-17T11:04:42.229Z,1.50
2023-05-17T11:07:27.292Z,1.60
2023-05-17T11:09:57.658Z,4.03
2023-05-17T11:12:38.579Z,2.87
2023-05-17T11:15:10.783Z,1.80
2023-05-17T11:17:56.182Z,1.93
2023-05-17T11:20:36.932Z,1.80
2023-05-17T11:23:18.795Z,1.97
2023-05-17T11:25:49.300Z,1.80
2023-05-17T11:28:23.014Z,2.07
2023-05-17T11:30:53.705Z,1.90
2023-05-17T11:33:40.367Z,1.57
2023-05-17T11:36:19.344Z,2.17
2023-05-17T11:38:55.174Z,2.30
2023-05-17T11:41:30.744Z,1.80
2023-05-17T11:43:59.515Z,1.87
2023-05-17T11:46:27.880Z,4.77
2023-05-17T11:48:58.560Z,2.27
2023-05-17T11:51:27.655Z,1.80
2023-05-17T11:53:56.642Z,2.23
2023-05-17T11:56:35.684Z,2.10
2023-05-17T11:59:11.321Z,2.23
2023-05-17T12:01:47.542Z,2.40
2023-05-17T12:04:26.335Z,3.83
2023-05-17T12:06:56.044Z,2.20
2023-05-17T12:09:26.149Z,1.70
2023-05-17T12:11:55.627Z,2.53
2023-05-17T12:14:24.099Z,2.83
2023-05-17T12:16:56.295Z,2.60
2023-05-17T12:19:29.829Z,2.37
2023-05-17T12:22:09.458Z,2.80
2023-05-17T12:24:42.632Z,3.20
2023-05-17T12:27:11.598Z,2.60
2023-05-17T12:29:40.377Z,2.73
2023-05-17T12:32:11.633Z,2.63
2023-05-17T12:34:41.933Z,2.73
2023-05-17T12:37:10.984Z,3.57
2023-05-17T12:39:39.861Z,2.80
2023-05-17T12:42:09.616Z,3.83
2023-05-17T12:44:38.109Z,3.43
2023-05-17T12:47:06.911Z,3.10
2023-05-17T12:49:41.267Z,3.60
2023-05-17T12:52:11.645Z,3.40
2023-05-17T12:54:41.925Z,3.83
2023-05-17T12:57:16.184Z,3.90
2023-05-17T12:59:49.307Z,3.80
2023-05-17T13:02:18.629Z,4.20
2023-05-17T13:04:48.681Z,3.80
2023-05-17T13:07:24.691Z,3.87
2023-05-17T13:09:53.231Z,3.60
2023-05-17T13:12:23.946Z,3.17
2023-05-17T13:14:54.701Z,3.80
2023-05-17T13:17:28.537Z,4.20
2023-05-17T13:19:58.644Z,3.50
2023-05-17T13:22:27.252Z,3.90
2023-05-17T13:24:56.437Z,3.87
2023-05-17T13:27:24.823Z,4.33
2023-05-17T13:29:57.792Z,4.20
2023-05-17T13:32:26.315Z,3.80
2023-05-17T13:34:55.008Z,4.07
2023-05-17T13:37:24.885Z,3.77
2023-05-17T13:39:54.808Z,4.10
2023-05-17T13:42:23.826Z,3.57
2023-05-17T13:44:55.088Z,3.60
2023-05-17T13:47:24.153Z,3.77
2023-05-17T13:49:52.889Z,4.17
2023-05-17T13:52:23.069Z,3.67
2023-05-17T13:54:52.923Z,3.83
2023-05-17T13:57:21.314Z,4.17
2023-05-17T13:59:49.922Z,3.70
2023-05-17T14:02:18.382Z,4.57
2023-05-17T14:04:46.821Z,4.10
2023-05-17T14:07:15.121Z,3.57
2023-05-17T14:09:43.739Z,4.23
2023-05-17T14:12:13.704Z,4.17
2023-05-17T14:14:42.050Z,4.53
2023-05-17T14:17:10.383Z,4.17
2023-05-17T14:19:38.904Z,4.30
2023-05-17T14:22:08.833Z,3.97
2023-05-17T14:24:37.185Z,4.13
2023-05-17T14:27:06.231Z,4.23
2023-05-17T14:29:35.952Z,4.57
2023-05-17T14:32:04.608Z,4.20
2023-05-17T14:34:35.193Z,4.10
2023-05-17T14:37:03.464Z,4.60
2023-05-17T14:39:31.853Z,4.40
2023-05-17T14:42:00.241Z,5.13
2023-05-17T14:44:28.549Z,4.60
2023-05-17T14:46:58.307Z,3.93
2023-05-17T14:49:26.656Z,4.60
2023-05-17T14:51:54.930Z,4.10
2023-05-17T14:54:29.735Z,4.30
2023-05-17T14:56:58.569Z,4.20
2023-05-17T14:59:27.179Z,4.50
2023-05-17T15:01:56.892Z,4.80
2023-05-17T15:04:32.973Z,4.80
2023-05-17T15:07:01.351Z,4.70
2023-05-17T15:09:30.853Z,4.90
2023-05-17T15:11:59.267Z,4.80
2023-05-17T15:14:27.706Z,4.97
2023-05-17T15:16:57.539Z,5.17
2023-05-17T15:19:26.542Z,4.30
2023-05-17T15:21:55.110Z,4.13
2023-05-17T15:24:23.529Z,4.57
2023-05-17T15:26:51.986Z,4.80
2023-05-17T15:29:20.406Z,4.70
2023-05-17T15:31:48.772Z,7.63
2023-05-17T15:34:18.636Z,5.47
2023-05-17T15:36:48.297Z,5.47
2023-05-17T15:39:16.763Z,4.83
2023-05-17T15:41:45.598Z,4.93
2023-05-17T15:44:14.033Z,4.60
2023-05-17T15:46:42.436Z,4.83
2023-05-17T15:49:10.988Z,4.20
2023-05-17T15:51:40.895Z,5.20
2023-05-17T15:54:09.366Z,4.83
2023-05-17T15:56:38.711Z,4.03
2023-05-17T15:59:07.790Z,4.70
2023-05-17T16:01:36.368Z,4.47
2023-05-17T16:04:04.813Z,4.23
2023-05-17T16:06:36.087Z,3.77
2023-05-17T16:09:06.128Z,4.50
2023-05-17T16:11:34.608Z,4.43
2023-05-17T16:14:03.099Z,3.87
2023-05-17T16:16:31.475Z,4.03
2023-05-17T16:19:01.112Z,4.30
2023-05-17T16:21:29.527Z,4.93
2023-05-17T16:23:57.918Z,4.53
2023-05-17T16:26:30.318Z,4.33
2023-05-17T16:28:58.781Z,3.63
2023-05-17T16:31:27.321Z,3.97
2023-05-17T16:33:55.859Z,3.77
2023-05-17T16:36:25.246Z,3.90
2023-05-17T16:38:53.728Z,3.93
2023-05-17T16:41:22.496Z,4.00
2023-05-17T16:43:52.241Z,4.00
2023-05-17T16:46:24.633Z,3.73
2023-05-17T16:48:55.507Z,3.80
2023-05-17T16:51:24.345Z,3.93
2023-05-17T16:53:52.729Z,4.30
2023-05-17T16:56:22.123Z,3.57
2023-05-17T16:58:52.307Z,3.83
2023-05-17T17:01:21.303Z,3.57
2023-05-17T17:03:49.655Z,3.67
2023-05-17T17:06:18.071Z,3.80
2023-05-17T17:08:46.602Z,3.63
2023-05-17T17:11:15.091Z,5.53
2023-05-17T17:13:43.551Z,4.70
2023-05-17T17:16:13.380Z,6.70
2023-05-17T17:18:41.803Z,4.90
2023-05-17T17:21:10.382Z,4.97
2023-05-17T17:23:39.816Z,6.30
2023-05-17T17:26:11.323Z,4.27
2023-05-17T17:28:39.946Z,3.90
2023-05-17T17:31:08.718Z,4.03
2023-05-17T17:33:38.811Z,4.27
2023-05-17T17:36:09.269Z,3.53
2023-05-17T17:38:37.795Z,3.67
2023-05-17T17:41:06.369Z,3.40
2023-05-17T17:43:34.838Z,3.67
2023-05-17T17:46:03.390Z,3.90
2023-05-17T17:48:31.887Z,3.87
2023-05-17T17:51:01.811Z,3.80
2023-05-17T17:53:30.260Z,14.33
2023-05-17T17:55:58.659Z,6.07
2023-05-17T17:58:26.986Z,3.83
2023-05-17T18:00:55.534Z,3.70
2023-05-17T18:03:23.994Z,3.93
2023-05-17T18:05:52.427Z,4.03
2023-05-17T18:08:22.198Z,3.97
2023-05-17T18:10:50.633Z,3.60
2023-05-17T18:13:19.001Z,3.00
2023-05-17T18:15:47.448Z,3.80
2023-05-17T18:18:16.107Z,4.03
2023-05-17T18:20:44.569Z,3.13
2023-05-17T18:23:13.033Z,4.00
2023-05-17T18:25:42.827Z,3.27
2023-05-17T18:28:11.180Z,4.60
2023-05-17T18:30:40.081Z,5.20
2023-05-17T18:33:08.677Z,4.73
2023-05-17T18:35:37.281Z,5.40
2023-05-17T18:38:05.778Z,3.83
2023-05-17T18:40:34.271Z,4.43
2023-05-17T18:43:04.102Z,3.80
2023-05-17T18:45:41.521Z,4.70
2023-05-17T18:48:09.972Z,4.43
2023-05-17T18:50:38.447Z,4.20
2023-05-17T18:53:06.851Z,4.40
2023-05-17T18:55:35.289Z,3.53
2023-05-17T18:58:05.055Z,4.27
2023-05-17T19:00:33.546Z,3.50
2023-05-17T19:03:02.079Z,3.77
2023-05-17T19:05:30.582Z,3.60
2023-05-17T19:07:58.973Z,3.83
2023-05-17T19:10:27.467Z,4.00
2023-05-17T19:12:55.850Z,3.33
2023-05-17T19:15:25.833Z,3.77
2023-05-17T19:17:54.287Z,3.33
2023-05-17T19:20:24.458Z,3.80
2023-05-17T19:22:52.856Z,3.67
2023-05-17T19:25:21.371Z,3.43
2023-05-17T19:27:49.734Z,4.10
2023-05-17T19:30:20.891Z,3.70
2023-05-17T19:32:51.199Z,3.70
2023-05-17T19:35:19.754Z,3.23
2023-05-17T19:37:48.123Z,3.53
2023-05-17T19:40:18.804Z,3.73
2023-05-17T19:42:47.173Z,3.87
2023-05-17T19:45:15.798Z,4.17
2023-05-17T19:47:44.516Z,3.47
2023-05-17T19:50:17.484Z,3.23
2023-05-17T19:52:46.116Z,3.80
2023-05-17T19:55:15.944Z,3.53
2023-05-17T19:57:44.297Z,3.90
2023-05-17T20:00:23.362Z,3.10
2023-05-17T20:02:52.098Z,3.47
2023-05-17T20:05:22.106Z,3.97
2023-05-17T20:07:50.824Z,3.77
2023-05-17T20:10:19.243Z,4.13
2023-05-17T20:12:48.143Z,4.00
2023-05-17T20:15:22.276Z,3.87
2023-05-17T20:17:50.729Z,4.07
2023-05-17T20:20:19.225Z,4.27
2023-05-17T20:22:49.585Z,3.47
2023-05-17T20:25:20.699Z,3.80
2023-05-17T20:27:49.173Z,3.47
2023-05-17T20:30:17.503Z,3.93
2023-05-17T20:32:45.877Z,3.50
2023-05-17T20:35:19.810Z,3.90
2023-05-17T20:37:49.555Z,4.50
2023-05-17T20:40:18.067Z,4.97
2023-05-17T20:42:47.341Z,4.40
2023-05-17T20:45:23.746Z,4.10
2023-05-17T20:47:52.613Z,3.87
2023-05-17T20:50:21.669Z,3.33
2023-05-17T20:52:51.764Z,3.63
2023-05-17T20:55:20.167Z,4.27
2023-05-17T20:57:48.702Z,3.83
2023-05-17T21:00:18.088Z,3.53
2023-05-17T21:02:46.547Z,4.20
2023-05-17T21:05:18.010Z,4.00
2023-05-17T21:07:46.750Z,3.90
2023-05-17T21:10:17.839Z,4.13
2023-05-17T21:12:46.218Z,3.90
2023-05-17T21:18:06.803Z,3.70
2023-05-17T21:20:35.506Z,4.00
2023-05-17T21:23:03.954Z,4.73
2023-05-17T21:25:34.074Z,4.73
2023-05-17T21:28:02.478Z,4.53
2023-05-17T21:30:31.084Z,4.50
2023-05-17T21:32:59.700Z,4.40
2023-05-17T21:35:28.206Z,4.23
2023-05-17T21:37:56.647Z,4.27
2023-05-17T21:40:24.990Z,4.40
2023-05-17T21:42:54.809Z,4.40
2023-05-17T21:45:23.416Z,4.60
2023-05-17T21:47:51.904Z,4.77
2023-05-17T21:50:20.511Z,4.50
2023-05-17T21:52:48.935Z,4.23
2023-05-17T21:55:17.428Z,4.17
2023-05-17T21:57:46.076Z,4.10
2023-05-17T22:00:16.694Z,3.70
2023-05-17T22:02:46.038Z,4.23
2023-05-17T22:05:14.774Z,4.03
2023-05-17T22:07:43.999Z,4.13
2023-05-17T22:10:13.374Z,4.07
2023-05-17T22:12:41.916Z,3.97
2023-05-17T22:15:11.477Z,4.23
2023-05-17T22:17:50.996Z,3.87
2023-05-17T22:20:26.896Z,3.97
2023-05-17T22:22:55.294Z,4.13
2023-05-17T22:25:23.894Z,4.10
2023-05-17T22:27:52.202Z,3.87
2023-05-17T22:30:25.850Z,3.37
2023-05-17T22:32:57.286Z,3.67
2023-05-17T22:35:26.059Z,4.10
2023-05-17T22:37:54.792Z,3.60
2023-05-17T22:40:25.837Z,4.27
2023-05-17T22:42:54.324Z,3.77
2023-05-17T22:45:22.705Z,3.50
2023-05-17T22:47:51.069Z,3.83
2023-05-17T22:50:24.501Z,3.60
2023-05-17T22:52:53.250Z,3.63
2023-05-17T22:55:25.119Z,3.87
2023-05-17T22:57:54.148Z,3.60
2023-05-17T23:00:22.642Z,3.90
2023-05-17T23:02:51.005Z,4.00
2023-05-17T23:05:22.228Z,3.70
2023-05-17T23:07:50.651Z,3.93
2023-05-17T23:10:19.655Z,3.43
2023-05-17T23:12:49.252Z,4.13
2023-05-17T23:15:18.557Z,3.47
2023-05-17T23:17:48.153Z,3.90
2023-05-17T23:20:16.531Z,3.77
2023-05-17T23:22:47.669Z,3.73
2023-05-17T23:25:18.387Z,3.87
2023-05-17T23:27:48.706Z,4.30
2023-05-17T23:30:17.081Z,3.77
2023-05-17T23:32:47.211Z,3.73
2023-05-17T23:35:15.700Z,4.33
2023-05-17T23:37:45.542Z,4.20
2023-05-17T23:40:15.723Z,4.17
2023-05-17T23:42:44.208Z,3.90
2023-05-17T23:45:12.746Z,4.60
2023-05-17T23:47:44.438Z,4.20
2023-05-17T23:50:12.933Z,3.57
2023-05-17T23:52:43.560Z,3.70
2023-05-17T23:55:13.346Z,4.10
2023-05-17T23:57:42.487Z,4.00
